Flight Track Log - Related Links

Times and Time Zones

All times are in EDT time to prevent confusion due to time zone crossing. See the SKW4542 flight status page for this flight to view local times or setup timezone preferences in your user account.

Time Position Orientation Groundspeed Altitude Reporting Facility
EDT Latitude Longitude Course Direction KTS MPH feet Rate Location/Type
Fri 08:41:17 PM 43.4492 -112.1322 214° Southwest 190 219 7,400  Level Salt Lake Center
Fri 08:42:00 PM 43.4255 -112.0676 216° Southwest  Level Estimated
Fri 08:42:19 PM 43.3872 -112.1847 212° Southwest 246 283 9,800  Level Salt Lake Center
Fri 08:43:00 PM 43.3491 -112.0649 213° Southwest  Level Estimated
Fri 08:43:20 PM 43.3078 -112.2586 214° Southwest 289 333 12,800  Level Salt Lake Center
Fri 08:44:00 PM 43.3084 -112.1537 238° Southwest  Level FlightAware Approximate
Fri 08:44:22 PM 43.2333 -112.3253 213° Southwest 314 361 15,800  Level Salt Lake Center
Fri 08:45:00 PM 43.2676 -112.2424 238° Southwest  Level FlightAware Approximate
Fri 08:45:24 PM 43.1458 -112.4056 214° Southwest 331 381 18,700  Level Salt Lake Center
Fri 08:46:25 PM 43.0692 -112.4711 212° Southwest 338 389 20,800 1,902 Climbing Salt Lake Center
Fri 08:47:27 PM 42.9914 -112.5422 214° Southwest 347 399 22,600 1,548 Climbing Salt Lake Center
Fri 08:48:29 PM 42.8983 -112.6225 212° Southwest 353 406 24,000 683 Climbing Salt Lake Center
Fri 08:49:30 PM 42.7981 -112.6389 187° South 395 455 24,000  Level Salt Lake Center
Fri 08:50:32 PM 42.6928 -112.6011 165° South 397 457 24,000  Level Salt Lake Center
Fri 08:51:33 PM 42.5875 -112.5686 167° South 391 450 24,000  Level Salt Lake Center
Fri 08:52:35 PM 42.4617 -112.5303 167° South 389 448 24,000  Level Salt Lake Center
Fri 08:53:36 PM 42.3558 -112.4978 167° South 391 450 24,000  Level Salt Lake Center
Fri 08:54:38 PM 42.2492 -112.4675 168° South 392 451 24,000  Level Salt Lake Center
Fri 08:55:39 PM 42.1411 -112.4517 174° South 390 449 24,000  Level Salt Lake Center
Fri 08:56:41 PM 42.0319 -112.4606 183° South 393 452 24,000  Level Salt Lake Center
Fri 08:57:42 PM 41.9233 -112.4672 183° South 393 452 24,000 -439 Level Salt Lake Center
Fri 08:58:44 PM 41.8133 -112.4733 182° South 396 456 23,100 -1,902 Descending Salt Lake Center
Fri 08:59:45 PM 41.6897 -112.4808 183° South 374 430 20,100 -2,707 Descending Salt Lake Center
Fri 09:00:06 PM 41.6639 -112.4758 172° South 375 432 19,400 -2,323 Descending Salt Lake Center
Fri 09:00:47 PM 41.5883 -112.4861 186° South 366 421 17,700 -1,674 Descending Salt Lake Center
Fri 09:01:32 PM 41.5219 -112.4750 173° South 352 405 17,000 -885 Descending Salt Lake Center
Fri 09:01:48 PM 41.4967 -112.4619 159° South 353 406 16,800 -1,164 Descending Salt Lake Center
Fri 09:02:39 PM 41.4328 -112.4019 145° Southeast 351 404 15,700 -1,500 Descending Salt Lake Center
Fri 09:03:40 PM 41.3486 -112.3447 153° Southeast 313 360 14,000 -1,670 Descending Salt Lake Center
Fri 09:04:34 PM 41.2817 -112.2986 153° Southeast 312 359 12,500 -1,479 Descending Salt Lake Center
Fri 09:04:53 PM 41.2633 -112.2897 160° South 309 356 12,200 -492 Descending Salt Lake Center
Fri 09:05:35 PM 41.2022 -112.2431 150° Southeast 304 350 12,000 -194 Descending Salt Lake Center
Fri 09:05:55 PM 41.1900 -112.2361 157° South 303 349 12,000  Level Salt Lake Center
Fri 09:06:36 PM 41.1292 -112.1881 149° Southeast 306 352 12,000  Level Salt Lake Center
Fri 09:06:56 PM 41.1017 -112.1681 151° Southeast 309 356 12,000  Level Salt Lake Center
Fri 09:07:37 PM 41.0511 -112.1403 157° South 308 354 12,000  Level Salt Lake Center
Fri 09:07:58 PM 41.0225 -112.1344 171° South 305 351 12,000  Level Salt Lake Center
Fri 09:08:38 PM 40.9706 -112.1250 172° South 298 343 12,000  Level Salt Lake Center
Fri 09:08:59 PM 40.9444 -112.1189 170° South 287 330 12,000  Level Salt Lake Center
Fri 09:09:32 PM 40.9053 -112.1103 171° South 257 296 12,000  Level Salt Lake Center
Fri 09:10:01 PM 40.8758 -112.1058 173° South 255 293 12,000  Level Salt Lake Center
Fri 09:10:33 PM 40.8331 -112.1036 178° South 260 299 12,000  Level Salt Lake Center
Fri 09:11:02 PM 40.8047 -112.0978 171° South 257 296 12,000 -658 Level Salt Lake Center
Fri 09:11:46 PM 40.7469 -112.0931 176° South 242 278 11,200 -871 Descending Salt Lake Center
Fri 09:12:04 PM 40.7381 -112.0906 168° South 242 278 11,100 -218 Descending Salt Lake Center
Fri 09:12:41 PM 40.6944 -112.0881 178° South 212 244 11,000 -197 Descending Salt Lake Center
Fri 09:13:05 PM 40.6792 -112.0831 166° South 215 247 10,900 -885 Descending Salt Lake Center
Fri 09:13:42 PM 40.6328 -112.0808 178° South 212 244 10,100 -871 Descending Salt Lake Center
Fri 09:14:07 PM 40.6097 -112.0756 170° South 209 241 10,000 -111 Descending Salt Lake Center
Fri 09:14:36 PM 40.5800 -112.0758 180° South 210 242 10,000 -197 Level Salt Lake Center
Fri 09:15:08 PM 40.5597 -112.0467 132° Southeast 215 247 9,800 -689 Descending Salt Lake Center
Fri 09:15:37 PM 40.5606 -112.0092 88° East 215 247 9,300 -1,258 Descending Salt Lake Center
Fri 09:16:10 PM 40.5822 -111.9817 44° Northeast 216 249 8,500 -1,075 Descending Salt Lake Center
Fri 09:16:44 PM 40.6150 -111.9794 North 192 221 8,100 -885 Descending Salt Lake Center
Fri 09:17:11 PM 40.6353 -111.9792 North 184 212 7,600 -1,111 Descending Salt Lake Center

Login

Don't have an account? Register now (free) for customized features, flight alerts, and more!